sensor_id;sensor_type;location;lat;lon;timestamp;temperature;humidity
23748;DHT22;12054;53.662;10.126;2022-10-30T00:01:55;15.30;99.90
23748;DHT22;12054;53.662;10.126;2022-10-30T00:04:21;15.40;99.90
23748;DHT22;12054;53.662;10.126;2022-10-30T00:06:47;15.40;99.90
23748;DHT22;12054;53.662;10.126;2022-10-30T00:09:13;15.30;99.90
23748;DHT22;12054;53.662;10.126;2022-10-30T00:11:40;15.30;99.90
23748;DHT22;12054;53.662;10.126;2022-10-30T00:14:06;15.30;99.90
23748;DHT22;12054;53.662;10.126;2022-10-30T00:16:32;15.30;99.90
23748;DHT22;12054;53.662;10.126;2022-10-30T00:18:58;15.30;99.90
23748;DHT22;12054;53.662;10.126;2022-10-30T00:21:23;15.30;99.90
23748;DHT22;12054;53.662;10.126;2022-10-30T00:23:51;15.30;99.90
23748;DHT22;12054;53.662;10.126;2022-10-30T00:26:18;15.30;99.90
23748;DHT22;12054;53.662;10.126;2022-10-30T00:28:44;15.30;99.90
23748;DHT22;12054;53.662;10.126;2022-10-30T00:31:13;15.30;99.90
23748;DHT22;12054;53.662;10.126;2022-10-30T00:33:38;15.30;99.90
23748;DHT22;12054;53.662;10.126;2022-10-30T00:36:04;15.30;99.90
23748;DHT22;12054;53.662;10.126;2022-10-30T00:38:30;15.30;99.90
23748;DHT22;12054;53.662;10.126;2022-10-30T00:40:56;15.20;99.90
23748;DHT22;12054;53.662;10.126;2022-10-30T00:43:34;15.30;99.90
23748;DHT22;12054;53.662;10.126;2022-10-30T00:48:33;15.20;99.90
23748;DHT22;12054;53.662;10.126;2022-10-30T00:51:00;15.20;99.90
23748;DHT22;12054;53.662;10.126;2022-10-30T00:53:27;15.20;99.90
23748;DHT22;12054;53.662;10.126;2022-10-30T00:55:57;15.20;99.90
23748;DHT22;12054;53.662;10.126;2022-10-30T00:58:28;15.20;99.90
23748;DHT22;12054;53.662;10.126;2022-10-30T01:00:57;15.20;99.90
23748;DHT22;12054;53.662;10.126;2022-10-30T01:03:24;15.20;99.90
23748;DHT22;12054;53.662;10.126;2022-10-30T01:05:54;15.20;99.90
23748;DHT22;12054;53.662;10.126;2022-10-30T01:08:21;15.30;99.90
23748;DHT22;12054;53.662;10.126;2022-10-30T01:10:47;15.20;99.90
23748;DHT22;12054;53.662;10.126;2022-10-30T01:13:14;15.20;99.90
23748;DHT22;12054;53.662;10.126;2022-10-30T01:15:57;15.20;99.90
23748;DHT22;12054;53.662;10.126;2022-10-30T01:21:14;15.20;99.90
23748;DHT22;12054;53.662;10.126;2022-10-30T01:23:47;15.20;99.90
23748;DHT22;12054;53.662;10.126;2022-10-30T01:26:51;15.20;99.90
23748;DHT22;12054;53.662;10.126;2022-10-30T01:32:30;15.10;99.90
23748;DHT22;12054;53.662;10.126;2022-10-30T01:35:17;15.20;99.90
23748;DHT22;12054;53.662;10.126;2022-10-30T01:38:06;15.10;99.90
23748;DHT22;12054;53.662;10.126;2022-10-30T01:40:33;15.10;99.90
23748;DHT22;12054;53.662;10.126;2022-10-30T01:42:59;15.10;99.90
23748;DHT22;12054;53.662;10.126;2022-10-30T01:48:59;15.10;99.90
23748;DHT22;12054;53.662;10.126;2022-10-30T01:57:45;15.10;99.90
23748;DHT22;12054;53.662;10.126;2022-10-30T01:59:59;15.10;99.90
23748;DHT22;12054;53.662;10.126;2022-10-30T02:02:26;15.10;99.90
23748;DHT22;12054;53.662;10.126;2022-10-30T02:04:52;15.10;99.90
23748;DHT22;12054;53.662;10.126;2022-10-30T02:07:17;15.00;99.90
23748;DHT22;12054;53.662;10.126;2022-10-30T02:09:43;15.00;99.90
23748;DHT22;12054;53.662;10.126;2022-10-30T02:12:09;15.10;99.90
23748;DHT22;12054;53.662;10.126;2022-10-30T02:14:39;15.10;99.90
23748;DHT22;12054;53.662;10.126;2022-10-30T02:17:06;15.00;99.90
23748;DHT22;12054;53.662;10.126;2022-10-30T02:19:32;15.00;99.90
23748;DHT22;12054;53.662;10.126;2022-10-30T02:21:58;15.00;99.90
23748;DHT22;12054;53.662;10.126;2022-10-30T02:24:24;15.00;99.90
23748;DHT22;12054;53.662;10.126;2022-10-30T02:26:49;15.00;99.90
23748;DHT22;12054;53.662;10.126;2022-10-30T02:29:15;15.00;99.90
23748;DHT22;12054;53.662;10.126;2022-10-30T02:31:43;14.90;99.90
23748;DHT22;12054;53.662;10.126;2022-10-30T02:34:08;14.90;99.90
23748;DHT22;12054;53.662;10.126;2022-10-30T02:36:34;14.90;99.90
23748;DHT22;12054;53.662;10.126;2022-10-30T02:38:59;14.90;99.90
23748;DHT22;12054;53.662;10.126;2022-10-30T02:41:25;14.90;99.90
23748;DHT22;12054;53.662;10.126;2022-10-30T02:43:50;14.90;99.90
23748;DHT22;12054;53.662;10.126;2022-10-30T02:46:17;14.90;99.90
23748;DHT22;12054;53.662;10.126;2022-10-30T02:48:43;14.90;99.90
23748;DHT22;12054;53.662;10.126;2022-10-30T02:51:08;14.80;99.90
23748;DHT22;12054;53.662;10.126;2022-10-30T02:53:34;14.90;99.90
23748;DHT22;12054;53.662;10.126;2022-10-30T02:56:07;14.80;99.90
23748;DHT22;12054;53.662;10.126;2022-10-30T02:58:33;14.80;99.90
23748;DHT22;12054;53.662;10.126;2022-10-30T03:01:10;14.80;99.90
23748;DHT22;12054;53.662;10.126;2022-10-30T03:03:36;14.80;99.90
23748;DHT22;12054;53.662;10.126;2022-10-30T03:06:04;14.80;99.90
23748;DHT22;12054;53.662;10.126;2022-10-30T03:08:29;14.80;99.90
23748;DHT22;12054;53.662;10.126;2022-10-30T03:11:00;14.80;99.90
23748;DHT22;12054;53.662;10.126;2022-10-30T03:13:27;14.80;99.90
23748;DHT22;12054;53.662;10.126;2022-10-30T03:15:58;14.80;99.90
23748;DHT22;12054;53.662;10.126;2022-10-30T03:18:24;14.80;99.90
23748;DHT22;12054;53.662;10.126;2022-10-30T03:20:49;14.70;99.90
23748;DHT22;12054;53.662;10.126;2022-10-30T03:23:15;14.70;99.90
23748;DHT22;12054;53.662;10.126;2022-10-30T03:25:40;14.70;99.90
23748;DHT22;12054;53.662;10.126;2022-10-30T03:28:06;14.70;99.90
23748;DHT22;12054;53.662;10.126;2022-10-30T03:30:32;14.70;99.90
23748;DHT22;12054;53.662;10.126;2022-10-30T03:32:57;14.70;99.90
23748;DHT22;12054;53.662;10.126;2022-10-30T03:35:23;14.70;99.90
23748;DHT22;12054;53.662;10.126;2022-10-30T03:37:48;14.70;99.90
23748;DHT22;12054;53.662;10.126;2022-10-30T03:40:14;14.60;99.90
23748;DHT22;12054;53.662;10.126;2022-10-30T03:42:39;14.60;99.90
23748;DHT22;12054;53.662;10.126;2022-10-30T03:45:06;14.60;99.90
23748;DHT22;12054;53.662;10.126;2022-10-30T03:47:31;14.60;99.90
23748;DHT22;12054;53.662;10.126;2022-10-30T03:49:57;14.60;99.90
23748;DHT22;12054;53.662;10.126;2022-10-30T03:52:22;14.60;99.90
23748;DHT22;12054;53.662;10.126;2022-10-30T03:54:48;14.60;99.90
23748;DHT22;12054;53.662;10.126;2022-10-30T03:57:13;14.50;99.90
23748;DHT22;12054;53.662;10.126;2022-10-30T03:59:38;14.60;99.90
23748;DHT22;12054;53.662;10.126;2022-10-30T04:02:04;14.50;99.90
23748;DHT22;12054;53.662;10.126;2022-10-30T04:04:29;14.50;99.90
23748;DHT22;12054;53.662;10.126;2022-10-30T04:06:55;14.50;99.90
23748;DHT22;12054;53.662;10.126;2022-10-30T04:09:20;14.50;99.90
23748;DHT22;12054;53.662;10.126;2022-10-30T04:11:46;14.50;99.90
23748;DHT22;12054;53.662;10.126;2022-10-30T04:14:11;14.50;99.90
23748;DHT22;12054;53.662;10.126;2022-10-30T04:16:37;14.50;99.90
23748;DHT22;12054;53.662;10.126;2022-10-30T04:19:02;14.40;99.90
23748;DHT22;12054;53.662;10.126;2022-10-30T04:21:28;14.50;99.90
23748;DHT22;12054;53.662;10.126;2022-10-30T04:23:53;14.40;99.90
23748;DHT22;12054;53.662;10.126;2022-10-30T04:26:19;14.40;99.90
23748;DHT22;12054;53.662;10.126;2022-10-30T04:28:46;14.40;99.90
23748;DHT22;12054;53.662;10.126;2022-10-30T04:31:12;14.40;99.90
23748;DHT22;12054;53.662;10.126;2022-10-30T04:33:37;14.40;99.90
23748;DHT22;12054;53.662;10.126;2022-10-30T04:36:03;14.30;99.90
23748;DHT22;12054;53.662;10.126;2022-10-30T04:38:29;14.30;99.90
23748;DHT22;12054;53.662;10.126;2022-10-30T04:40:54;14.30;99.90
23748;DHT22;12054;53.662;10.126;2022-10-30T04:43:20;14.30;99.90
23748;DHT22;12054;53.662;10.126;2022-10-30T04:45:45;14.30;99.90
23748;DHT22;12054;53.662;10.126;2022-10-30T04:48:16;14.30;99.90
23748;DHT22;12054;53.662;10.126;2022-10-30T04:50:42;14.20;99.90
23748;DHT22;12054;53.662;10.126;2022-10-30T04:53:13;14.20;99.90
23748;DHT22;12054;53.662;10.126;2022-10-30T04:55:39;14.20;99.90
23748;DHT22;12054;53.662;10.126;2022-10-30T04:58:05;14.20;99.90
23748;DHT22;12054;53.662;10.126;2022-10-30T05:00:32;14.20;99.90
23748;DHT22;12054;53.662;10.126;2022-10-30T05:02:59;14.20;99.90
23748;DHT22;12054;53.662;10.126;2022-10-30T05:05:25;14.10;99.90
23748;DHT22;12054;53.662;10.126;2022-10-30T05:07:51;14.10;99.90
23748;DHT22;12054;53.662;10.126;2022-10-30T05:10:16;14.10;99.90
23748;DHT22;12054;53.662;10.126;2022-10-30T05:12:43;14.10;99.90
23748;DHT22;12054;53.662;10.126;2022-10-30T05:15:10;14.10;99.90
23748;DHT22;12054;53.662;10.126;2022-10-30T05:17:37;14.10;99.90
23748;DHT22;12054;53.662;10.126;2022-10-30T05:20:04;14.10;99.90
23748;DHT22;12054;53.662;10.126;2022-10-30T05:22:29;14.10;99.90
23748;DHT22;12054;53.662;10.126;2022-10-30T05:24:55;14.10;99.90
23748;DHT22;12054;53.662;10.126;2022-10-30T05:27:21;14.00;99.90
23748;DHT22;12054;53.662;10.126;2022-10-30T05:29:46;14.00;99.90
23748;DHT22;12054;53.662;10.126;2022-10-30T05:32:12;14.00;99.90
23748;DHT22;12054;53.662;10.126;2022-10-30T05:34:37;14.00;99.90
23748;DHT22;12054;53.662;10.126;2022-10-30T05:37:02;14.00;99.90
23748;DHT22;12054;53.662;10.126;2022-10-30T05:39:28;14.00;99.90
23748;DHT22;12054;53.662;10.126;2022-10-30T05:41:53;14.00;99.90
23748;DHT22;12054;53.662;10.126;2022-10-30T05:44:19;14.00;99.90
23748;DHT22;12054;53.662;10.126;2022-10-30T05:46:44;14.00;99.90
23748;DHT22;12054;53.662;10.126;2022-10-30T05:49:10;13.90;99.90
23748;DHT22;12054;53.662;10.126;2022-10-30T05:51:35;14.00;99.90
23748;DHT22;12054;53.662;10.126;2022-10-30T05:54:01;13.90;99.90
23748;DHT22;12054;53.662;10.126;2022-10-30T05:56:27;13.90;99.90
23748;DHT22;12054;53.662;10.126;2022-10-30T05:58:52;13.90;99.90
23748;DHT22;12054;53.662;10.126;2022-10-30T06:01:18;13.90;99.90
23748;DHT22;12054;53.662;10.126;2022-10-30T06:03:43;13.90;99.90
23748;DHT22;12054;53.662;10.126;2022-10-30T06:06:09;13.90;99.90
23748;DHT22;12054;53.662;10.126;2022-10-30T06:08:35;13.90;99.90
23748;DHT22;12054;53.662;10.126;2022-10-30T06:11:00;13.90;99.90
23748;DHT22;12054;53.662;10.126;2022-10-30T06:13:25;13.80;99.90
23748;DHT22;12054;53.662;10.126;2022-10-30T06:15:54;13.80;99.90
23748;DHT22;12054;53.662;10.126;2022-10-30T06:18:20;13.80;99.90
23748;DHT22;12054;53.662;10.126;2022-10-30T06:20:46;13.80;99.90
23748;DHT22;12054;53.662;10.126;2022-10-30T06:23:11;13.80;99.90
23748;DHT22;12054;53.662;10.126;2022-10-30T06:25:37;13.80;99.90
23748;DHT22;12054;53.662;10.126;2022-10-30T06:28:02;13.80;99.90
23748;DHT22;12054;53.662;10.126;2022-10-30T06:30:28;13.80;99.90
23748;DHT22;12054;53.662;10.126;2022-10-30T06:33:01;13.80;99.90
23748;DHT22;12054;53.662;10.126;2022-10-30T06:35:27;13.80;99.90
23748;DHT22;12054;53.662;10.126;2022-10-30T06:37:53;13.80;99.90
23748;DHT22;12054;53.662;10.126;2022-10-30T06:40:23;13.80;99.90
23748;DHT22;12054;53.662;10.126;2022-10-30T06:42:50;13.80;99.90
23748;DHT22;12054;53.662;10.126;2022-10-30T06:45:17;13.80;99.90
23748;DHT22;12054;53.662;10.126;2022-10-30T06:47:43;13.80;99.90
23748;DHT22;12054;53.662;10.126;2022-10-30T06:50:12;13.80;99.90
23748;DHT22;12054;53.662;10.126;2022-10-30T06:52:38;13.80;99.90
23748;DHT22;12054;53.662;10.126;2022-10-30T06:55:04;13.80;99.90
23748;DHT22;12054;53.662;10.126;2022-10-30T06:57:30;13.80;99.90
23748;DHT22;12054;53.662;10.126;2022-10-30T06:59:55;13.70;99.90
23748;DHT22;12054;53.662;10.126;2022-10-30T07:02:21;13.70;99.90
23748;DHT22;12054;53.662;10.126;2022-10-30T07:04:46;13.70;99.90
23748;DHT22;12054;53.662;10.126;2022-10-30T07:07:15;13.70;99.90
23748;DHT22;12054;53.662;10.126;2022-10-30T07:09:41;13.70;99.90
23748;DHT22;12054;53.662;10.126;2022-10-30T07:12:08;13.70;99.90
23748;DHT22;12054;53.662;10.126;2022-10-30T07:14:34;13.70;99.90
23748;DHT22;12054;53.662;10.126;2022-10-30T07:17:00;13.70;99.90
23748;DHT22;12054;53.662;10.126;2022-10-30T07:19:25;13.70;99.90
23748;DHT22;12054;53.662;10.126;2022-10-30T07:21:51;13.70;99.90
23748;DHT22;12054;53.662;10.126;2022-10-30T07:24:16;13.70;99.90
23748;DHT22;12054;53.662;10.126;2022-10-30T07:26:42;13.70;99.90
23748;DHT22;12054;53.662;10.126;2022-10-30T07:29:07;13.70;99.90
23748;DHT22;12054;53.662;10.126;2022-10-30T07:31:33;13.70;99.90
23748;DHT22;12054;53.662;10.126;2022-10-30T07:33:59;13.70;99.90
23748;DHT22;12054;53.662;10.126;2022-10-30T07:36:24;13.70;99.90
23748;DHT22;12054;53.662;10.126;2022-10-30T07:38:50;13.70;99.90
23748;DHT22;12054;53.662;10.126;2022-10-30T07:41:17;13.70;99.90
23748;DHT22;12054;53.662;10.126;2022-10-30T07:43:43;13.70;99.90
23748;DHT22;12054;53.662;10.126;2022-10-30T07:46:09;13.70;99.90
23748;DHT22;12054;53.662;10.126;2022-10-30T07:48:35;13.70;99.90
23748;DHT22;12054;53.662;10.126;2022-10-30T07:51:00;13.70;99.90
23748;DHT22;12054;53.662;10.126;2022-10-30T07:53:26;13.80;99.90
23748;DHT22;12054;53.662;10.126;2022-10-30T07:55:51;13.80;99.90
23748;DHT22;12054;53.662;10.126;2022-10-30T07:58:17;13.90;99.90
23748;DHT22;12054;53.662;10.126;2022-10-30T08:00:42;14.00;99.90
23748;DHT22;12054;53.662;10.126;2022-10-30T08:03:09;14.10;99.90
23748;DHT22;12054;53.662;10.126;2022-10-30T08:05:35;14.20;99.90
23748;DHT22;12054;53.662;10.126;2022-10-30T08:08:01;14.30;99.90
23748;DHT22;12054;53.662;10.126;2022-10-30T08:10:26;14.50;99.90
23748;DHT22;12054;53.662;10.126;2022-10-30T08:12:52;14.60;99.90
23748;DHT22;12054;53.662;10.126;2022-10-30T08:15:18;14.80;99.90
23748;DHT22;12054;53.662;10.126;2022-10-30T08:17:46;14.90;99.90
23748;DHT22;12054;53.662;10.126;2022-10-30T08:20:14;15.10;99.90
23748;DHT22;12054;53.662;10.126;2022-10-30T08:25:09;15.50;99.90
23748;DHT22;12054;53.662;10.126;2022-10-30T08:27:35;15.60;99.90
23748;DHT22;12054;53.662;10.126;2022-10-30T08:30:00;15.60;99.90
23748;DHT22;12054;53.662;10.126;2022-10-30T08:32:26;15.70;99.90
23748;DHT22;12054;53.662;10.126;2022-10-30T08:34:51;15.70;99.90
23748;DHT22;12054;53.662;10.126;2022-10-30T08:37:17;15.70;99.90
23748;DHT22;12054;53.662;10.126;2022-10-30T08:39:42;15.60;99.90
23748;DHT22;12054;53.662;10.126;2022-10-30T08:42:08;15.60;99.90
23748;DHT22;12054;53.662;10.126;2022-10-30T08:44:33;15.60;99.90
23748;DHT22;12054;53.662;10.126;2022-10-30T08:46:59;15.60;99.90
23748;DHT22;12054;53.662;10.126;2022-10-30T08:49:24;15.60;99.90
23748;DHT22;12054;53.662;10.126;2022-10-30T08:51:50;15.70;99.90
23748;DHT22;12054;53.662;10.126;2022-10-30T08:54:15;15.70;99.90
23748;DHT22;12054;53.662;10.126;2022-10-30T08:56:41;15.80;99.90
23748;DHT22;12054;53.662;10.126;2022-10-30T08:59:06;15.80;99.90
23748;DHT22;12054;53.662;10.126;2022-10-30T09:01:32;15.90;99.90
23748;DHT22;12054;53.662;10.126;2022-10-30T09:03:57;16.00;99.90
23748;DHT22;12054;53.662;10.126;2022-10-30T09:06:22;16.10;99.90
23748;DHT22;12054;53.662;10.126;2022-10-30T09:08:48;16.30;99.90
23748;DHT22;12054;53.662;10.126;2022-10-30T09:11:14;16.30;99.90
23748;DHT22;12054;53.662;10.126;2022-10-30T09:13:41;16.50;99.90
23748;DHT22;12054;53.662;10.126;2022-10-30T09:16:07;16.70;99.90
23748;DHT22;12054;53.662;10.126;2022-10-30T09:18:32;16.80;99.90
23748;DHT22;12054;53.662;10.126;2022-10-30T09:20:58;16.90;99.90
23748;DHT22;12054;53.662;10.126;2022-10-30T09:23:23;17.10;99.90
23748;DHT22;12054;53.662;10.126;2022-10-30T09:25:49;17.30;99.90
23748;DHT22;12054;53.662;10.126;2022-10-30T09:28:14;17.40;99.90
23748;DHT22;12054;53.662;10.126;2022-10-30T09:30:40;17.60;99.90
23748;DHT22;12054;53.662;10.126;2022-10-30T09:33:05;17.80;99.90
23748;DHT22;12054;53.662;10.126;2022-10-30T09:35:31;17.90;99.90
23748;DHT22;12054;53.662;10.126;2022-10-30T09:37:57;18.10;99.90
23748;DHT22;12054;53.662;10.126;2022-10-30T09:40:33;18.20;99.90
23748;DHT22;12054;53.662;10.126;2022-10-30T09:43:37;18.30;99.90
23748;DHT22;12054;53.662;10.126;2022-10-30T09:46:28;18.50;99.90
23748;DHT22;12054;53.662;10.126;2022-10-30T09:57:20;19.10;99.90
23748;DHT22;12054;53.662;10.126;2022-10-30T10:00:18;19.10;99.90
23748;DHT22;12054;53.662;10.126;2022-10-30T10:02:55;19.30;99.90
23748;DHT22;12054;53.662;10.126;2022-10-30T10:05:28;19.40;99.90
23748;DHT22;12054;53.662;10.126;2022-10-30T10:08:02;19.50;99.90
23748;DHT22;12054;53.662;10.126;2022-10-30T10:10:50;19.60;99.90
23748;DHT22;12054;53.662;10.126;2022-10-30T10:13:34;19.70;99.90
23748;DHT22;12054;53.662;10.126;2022-10-30T10:16:16;19.80;99.90
23748;DHT22;12054;53.662;10.126;2022-10-30T10:19:11;19.90;99.90
23748;DHT22;12054;53.662;10.126;2022-10-30T10:21:43;20.00;99.90
23748;DHT22;12054;53.662;10.126;2022-10-30T10:24:16;20.10;99.90
23748;DHT22;12054;53.662;10.126;2022-10-30T10:26:55;20.20;99.90
23748;DHT22;12054;53.662;10.126;2022-10-30T10:29:37;20.30;99.90
23748;DHT22;12054;53.662;10.126;2022-10-30T10:32:16;20.30;99.90
23748;DHT22;12054;53.662;10.126;2022-10-30T10:34:55;20.40;99.90
23748;DHT22;12054;53.662;10.126;2022-10-30T10:37:43;20.50;99.90
23748;DHT22;12054;53.662;10.126;2022-10-30T10:40:49;20.50;99.90
23748;DHT22;12054;53.662;10.126;2022-10-30T10:43:41;20.50;99.90
23748;DHT22;12054;53.662;10.126;2022-10-30T10:46:36;20.60;99.90
23748;DHT22;12054;53.662;10.126;2022-10-30T10:52:23;20.80;99.90
23748;DHT22;12054;53.662;10.126;2022-10-30T10:54:56;20.80;99.90
23748;DHT22;12054;53.662;10.126;2022-10-30T10:57:27;20.90;99.90
23748;DHT22;12054;53.662;10.126;2022-10-30T11:02:54;21.00;99.90
23748;DHT22;12054;53.662;10.126;2022-10-30T11:05:33;21.10;99.90
23748;DHT22;12054;53.662;10.126;2022-10-30T11:08:37;21.10;99.90
23748;DHT22;12054;53.662;10.126;2022-10-30T11:11:01;21.20;99.90
23748;DHT22;12054;53.662;10.126;2022-10-30T11:13:39;21.20;99.90
23748;DHT22;12054;53.662;10.126;2022-10-30T11:16:28;21.30;99.90
23748;DHT22;12054;53.662;10.126;2022-10-30T11:19:00;21.30;99.90
23748;DHT22;12054;53.662;10.126;2022-10-30T11:21:29;21.40;99.90
23748;DHT22;12054;53.662;10.126;2022-10-30T11:23:56;21.40;99.90
23748;DHT22;12054;53.662;10.126;2022-10-30T11:26:26;21.50;99.90
23748;DHT22;12054;53.662;10.126;2022-10-30T11:29:10;21.50;99.90
23748;DHT22;12054;53.662;10.126;2022-10-30T11:31:39;21.60;99.90
23748;DHT22;12054;53.662;10.126;2022-10-30T11:34:33;21.60;99.90
23748;DHT22;12054;53.662;10.126;2022-10-30T11:36:58;21.70;99.90
23748;DHT22;12054;53.662;10.126;2022-10-30T11:39:34;21.70;99.90
23748;DHT22;12054;53.662;10.126;2022-10-30T11:42:06;21.80;99.90
23748;DHT22;12054;53.662;10.126;2022-10-30T11:44:40;21.80;99.90
23748;DHT22;12054;53.662;10.126;2022-10-30T11:47:08;21.80;99.90
23748;DHT22;12054;53.662;10.126;2022-10-30T11:49:58;21.90;99.90
23748;DHT22;12054;53.662;10.126;2022-10-30T11:52:25;21.90;99.90
23748;DHT22;12054;53.662;10.126;2022-10-30T11:55:01;21.90;99.90
23748;DHT22;12054;53.662;10.126;2022-10-30T11:57:55;21.90;99.90
23748;DHT22;12054;53.662;10.126;2022-10-30T12:00:23;21.90;99.90
23748;DHT22;12054;53.662;10.126;2022-10-30T12:02:51;21.90;99.90
23748;DHT22;12054;53.662;10.126;2022-10-30T12:05:34;21.90;99.90
23748;DHT22;12054;53.662;10.126;2022-10-30T12:10:32;21.90;99.90
23748;DHT22;12054;53.662;10.126;2022-10-30T12:13:03;22.00;99.90
23748;DHT22;12054;53.662;10.126;2022-10-30T12:15:34;22.00;99.90
23748;DHT22;12054;53.662;10.126;2022-10-30T12:18:03;22.00;99.90
23748;DHT22;12054;53.662;10.126;2022-10-30T12:20:30;22.00;99.90
23748;DHT22;12054;53.662;10.126;2022-10-30T12:22:57;22.00;99.90
23748;DHT22;12054;53.662;10.126;2022-10-30T12:25:27;22.00;99.90
23748;DHT22;12054;53.662;10.126;2022-10-30T12:28:03;22.00;99.90
23748;DHT22;12054;53.662;10.126;2022-10-30T12:30:31;22.00;99.90
23748;DHT22;12054;53.662;10.126;2022-10-30T12:33:06;22.00;99.90
23748;DHT22;12054;53.662;10.126;2022-10-30T12:35:45;22.00;99.90
23748;DHT22;12054;53.662;10.126;2022-10-30T12:38:32;22.00;99.90
23748;DHT22;12054;53.662;10.126;2022-10-30T12:41:28;22.00;99.90
23748;DHT22;12054;53.662;10.126;2022-10-30T12:52:02;22.00;99.90
23748;DHT22;12054;53.662;10.126;2022-10-30T12:54:43;22.00;99.90
23748;DHT22;12054;53.662;10.126;2022-10-30T12:57:23;22.00;99.90
23748;DHT22;12054;53.662;10.126;2022-10-30T13:00:10;22.00;99.90
23748;DHT22;12054;53.662;10.126;2022-10-30T13:05:36;22.00;99.90
23748;DHT22;12054;53.662;10.126;2022-10-30T13:08:09;21.90;99.90
23748;DHT22;12054;53.662;10.126;2022-10-30T13:10:49;21.90;99.90
23748;DHT22;12054;53.662;10.126;2022-10-30T13:13:31;21.90;99.90
23748;DHT22;12054;53.662;10.126;2022-10-30T13:15:59;21.90;99.90
23748;DHT22;12054;53.662;10.126;2022-10-30T13:18:28;21.90;99.90
23748;DHT22;12054;53.662;10.126;2022-10-30T13:29:27;21.90;99.90
23748;DHT22;12054;53.662;10.126;2022-10-30T13:35:30;21.90;99.90
23748;DHT22;12054;53.662;10.126;2022-10-30T13:38:20;21.90;99.90
23748;DHT22;12054;53.662;10.126;2022-10-30T13:46:54;21.80;99.90
23748;DHT22;12054;53.662;10.126;2022-10-30T13:50:00;21.80;99.90
23748;DHT22;12054;53.662;10.126;2022-10-30T13:52:31;21.80;99.90
23748;DHT22;12054;53.662;10.126;2022-10-30T13:55:01;21.80;99.90
23748;DHT22;12054;53.662;10.126;2022-10-30T13:57:50;21.80;99.90
23748;DHT22;12054;53.662;10.126;2022-10-30T14:00:26;21.70;99.90
23748;DHT22;12054;53.662;10.126;2022-10-30T14:10:53;21.70;99.90
23748;DHT22;12054;53.662;10.126;2022-10-30T14:13:42;21.70;99.90
23748;DHT22;12054;53.662;10.126;2022-10-30T14:16:29;21.70;99.90
23748;DHT22;12054;53.662;10.126;2022-10-30T14:19:03;21.70;99.90
23748;DHT22;12054;53.662;10.126;2022-10-30T14:24:23;21.60;99.90
23748;DHT22;12054;53.662;10.126;2022-10-30T14:27:09;21.60;99.90
23748;DHT22;12054;53.662;10.126;2022-10-30T14:29:45;21.60;99.90
23748;DHT22;12054;53.662;10.126;2022-10-30T14:37:09;21.60;99.90
23748;DHT22;12054;53.662;10.126;2022-10-30T14:39:43;21.50;99.90
23748;DHT22;12054;53.662;10.126;2022-10-30T14:42:41;21.50;99.90
23748;DHT22;12054;53.662;10.126;2022-10-30T14:45:28;21.50;99.90
23748;DHT22;12054;53.662;10.126;2022-10-30T14:58:42;21.40;99.90
23748;DHT22;12054;53.662;10.126;2022-10-30T15:04:21;21.20;99.90
23748;DHT22;12054;53.662;10.126;2022-10-30T15:15:02;21.10;99.90
23748;DHT22;12054;53.662;10.126;2022-10-30T15:17:50;21.10;99.90
23748;DHT22;12054;53.662;10.126;2022-10-30T15:20:36;21.00;99.90
23748;DHT22;12054;53.662;10.126;2022-10-30T15:23:11;21.00;99.90
23748;DHT22;12054;53.662;10.126;2022-10-30T15:25:46;20.90;99.90
23748;DHT22;12054;53.662;10.126;2022-10-30T15:28:21;20.90;99.90
23748;DHT22;12054;53.662;10.126;2022-10-30T15:33:42;20.80;99.90
23748;DHT22;12054;53.662;10.126;2022-10-30T15:36:23;20.70;99.90
23748;DHT22;12054;53.662;10.126;2022-10-30T15:39:05;20.60;99.90
23748;DHT22;12054;53.662;10.126;2022-10-30T15:41:35;20.60;99.90
23748;DHT22;12054;53.662;10.126;2022-10-30T15:44:04;20.50;99.90
23748;DHT22;12054;53.662;10.126;2022-10-30T15:46:30;20.50;99.90
23748;DHT22;12054;53.662;10.126;2022-10-30T15:48:55;20.40;99.90
23748;DHT22;12054;53.662;10.126;2022-10-30T15:51:22;20.30;99.90
23748;DHT22;12054;53.662;10.126;2022-10-30T15:53:50;20.30;99.90
23748;DHT22;12054;53.662;10.126;2022-10-30T15:56:21;20.30;99.90
23748;DHT22;12054;53.662;10.126;2022-10-30T15:58:51;20.20;99.90
23748;DHT22;12054;53.662;10.126;2022-10-30T16:03:54;20.10;99.90
23748;DHT22;12054;53.662;10.126;2022-10-30T16:06:31;20.00;99.90
23748;DHT22;12054;53.662;10.126;2022-10-30T16:08:57;20.00;99.90
23748;DHT22;12054;53.662;10.126;2022-10-30T16:11:24;19.90;99.90
23748;DHT22;12054;53.662;10.126;2022-10-30T16:13:51;19.90;99.90
23748;DHT22;12054;53.662;10.126;2022-10-30T16:16:28;19.80;99.90
23748;DHT22;12054;53.662;10.126;2022-10-30T16:18:59;19.70;99.90
23748;DHT22;12054;53.662;10.126;2022-10-30T16:21:26;19.80;99.90
23748;DHT22;12054;53.662;10.126;2022-10-30T16:24:00;19.60;99.90
23748;DHT22;12054;53.662;10.126;2022-10-30T16:26:35;19.50;99.90
23748;DHT22;12054;53.662;10.126;2022-10-30T16:31:43;19.40;99.90
23748;DHT22;12054;53.662;10.126;2022-10-30T16:34:27;19.40;99.90
23748;DHT22;12054;53.662;10.126;2022-10-30T16:36:59;19.30;99.90
23748;DHT22;12054;53.662;10.126;2022-10-30T16:39:26;19.30;99.90
23748;DHT22;12054;53.662;10.126;2022-10-30T16:41:55;19.20;99.90
23748;DHT22;12054;53.662;10.126;2022-10-30T16:44:33;19.10;99.90
23748;DHT22;12054;53.662;10.126;2022-10-30T16:49:30;19.00;99.90
23748;DHT22;12054;53.662;10.126;2022-10-30T16:52:05;18.90;99.90
23748;DHT22;12054;53.662;10.126;2022-10-30T16:54:39;18.90;99.90
23748;DHT22;12054;53.662;10.126;2022-10-30T16:57:21;18.80;99.90
23748;DHT22;12054;53.662;10.126;2022-10-30T16:59:49;18.80;99.90
23748;DHT22;12054;53.662;10.126;2022-10-30T17:02:19;18.70;99.90
23748;DHT22;12054;53.662;10.126;2022-10-30T17:04:48;18.70;99.90
23748;DHT22;12054;53.662;10.126;2022-10-30T17:07:17;18.70;99.90
23748;DHT22;12054;53.662;10.126;2022-10-30T17:09:46;18.50;99.90
23748;DHT22;12054;53.662;10.126;2022-10-30T17:19:48;18.40;99.90
23748;DHT22;12054;53.662;10.126;2022-10-30T17:22:17;18.30;99.90
23748;DHT22;12054;53.662;10.126;2022-10-30T17:24:44;18.20;99.90
23748;DHT22;12054;53.662;10.126;2022-10-30T17:27:43;18.40;99.90
23748;DHT22;12054;53.662;10.126;2022-10-30T17:30:33;18.20;99.90
23748;DHT22;12054;53.662;10.126;2022-10-30T17:33:00;18.10;99.90
23748;DHT22;12054;53.662;10.126;2022-10-30T17:35:26;18.10;99.90
23748;DHT22;12054;53.662;10.126;2022-10-30T17:37:52;18.00;99.90